PDT,Max TemperatureF,Mean TemperatureF,Min TemperatureF,Max Dew PointF,MeanDew PointF,Min DewpointF,Max Humidity, Mean Humidity, Min Humidity, Max Sea Level PressureIn, Mean Sea Level PressureIn, Min Sea Level PressureIn, Max VisibilityMiles, Mean VisibilityMiles, Min VisibilityMiles, Max Wind SpeedMPH, Mean Wind SpeedMPH, Max Gust SpeedMPH,PrecipitationIn, CloudCover, Events, WindDirDegrees
2013-5-1,91,68,44,50,44,21,93,51,8,30.08,29.95,29.86,10,8,0,20,6,24,0.00,1,Fog,175
2013-5-2,95,70,45,43,33,13,76,41,5,30.16,30.09,30.04,10,10,10,17,6,20,0.00,0,,72
2013-5-3,97,72,47,37,29,21,54,31,7,30.07,29.91,29.78,10,10,9,20,6,24,0.00,0,,292
2013-5-4,85,67,48,49,35,23,83,49,14,29.80,29.71,29.65,10,10,10,26,9,32,0.00,1,,217
2013-5-5,67,61,54,49,47,46,83,66,48,29.84,29.77,29.71,10,10,10,26,12,36,0.00,6,,200
2013-5-6,66,60,54,53,50,45,93,71,48,29.99,29.89,29.84,10,10,4,22,7,26,0.05,7,Rain,191
2013-5-7,74,64,53,49,46,40,83,56,29,30.05,29.99,29.95,10,10,10,21,6,24,0.00,4,,185
2013-5-8,76,63,49,47,45,42,86,59,31,30.11,30.07,30.02,10,10,10,17,7,,0.00,4,,240
2013-5-9,82,64,46,49,45,36,93,57,20,30.14,30.09,30.01,10,10,7,21,9,26,0.00,1,,292
2013-5-10,92,71,49,51,49,46,93,58,23,30.18,30.11,30.01,10,10,6,17,6,21,0.00,1,,310
2013-5-11,101,77,52,53,47,38,83,49,15,30.12,30.06,29.96,10,10,10,21,6,25,0.00,0,,328
2013-5-12,102,79,56,48,44,37,67,39,11,30.12,30.03,29.93,10,10,10,22,5,,0.00,0,,291
2013-5-13,100,77,54,49,43,24,72,40,8,30.06,29.99,29.89,10,10,10,17,6,,0.00,0,,248
2013-5-14,78,64,49,50,48,45,89,62,35,30.03,29.98,29.93,10,10,10,26,11,32,0.00,1,,243
2013-5-15,86,67,48,46,42,29,86,49,12,30.06,30.01,29.94,10,10,10,24,12,29,0.00,0,,302
2013-5-16,79,64,48,48,45,39,86,56,25,30.02,29.97,29.90,10,10,10,23,12,29,0.00,2,,332
2013-5-17,82,66,50,46,41,27,83,50,16,30.05,29.98,29.93,10,10,10,24,13,30,0.00,0,,324
2013-5-18,85,66,47,46,37,19,80,45,10,30.12,30.06,30.00,10,10,10,25,12,32,0.00,0,,320
2013-5-19,89,68,46,48,42,37,86,51,16,30.08,30.00,29.90,10,10,10,21,8,26,0.00,0,,327
2013-5-20,96,71,45,39,34,31,65,38,11,30.00,29.94,29.86,10,10,10,21,5,28,0.00,0,,303
2013-5-21,88,69,50,44,37,23,63,38,12,29.95,29.89,29.83,10,10,10,25,14,33,0.00,0,,314
2013-5-22,77,61,44,40,33,15,83,47,10,29.95,29.90,29.81,10,10,10,23,12,38,0.00,0,,328
2013-5-23,74,58,42,40,35,18,89,51,12,29.98,29.94,29.89,10,10,10,21,12,25,0.00,0,,308
2013-5-24,80,60,39,40,35,28,79,48,16,30.01,29.96,29.91,10,10,10,22,7,29,0.00,0,,288
2013-5-25,78,61,44,44,40,32,89,56,22,30.04,30.00,29.96,10,10,10,22,11,23,0.00,0,,288
2013-5-26,82,66,49,48,46,41,93,59,25,30.09,30.05,29.99,10,10,10,23,12,26,0.00,1,,327
2013-5-27,80,66,52,50,47,42,89,59,28,30.09,30.03,29.96,10,10,10,28,15,32,0.00,0,,320
2013-5-28,86,70,54,54,50,46,86,57,27,29.99,29.92,29.83,10,10,10,25,12,31,0.00,2,,317
2013-5-29,88,70,52,52,45,28,83,48,12,29.94,29.88,29.79,10,10,10,25,13,32,0.00,0,,324
2013-5-30,91,69,46,45,37,26,86,48,10,29.96,29.91,29.84,10,10,10,24,11,29,0.00,0,,325
2013-5-31,96,72,48,42,38,31,77,44,11,29.99,29.92,29.84,10,10,10,20,7,23,0.00,0,,319